Latest Weather Observations for Cobar Airport

IDN60801

Issued at 5:32 am EST Wednesday 5 August 2015 (issued every 30 minutes, with the page automatically refreshed every 10 minutes)

About weather observations | Map of weather stations | Latest weather observations for NSW | Other Formats
Station Details ID: 048237 Name: COBAR AIRPORT AWS Lat: -31.54 Lon: 145.80 Height: 218.0 m
Data from the previous 72 hours. | See also: Recent months at Cobar Airport
Date/Time
EST
Temp
°C
App
Temp
°C
Dew
Point
Rel
Hum
%
Delta-T
°C
Wind Press
QNH
hPa
Press
MSL
hPa
Rain
since 9 am
mm
Dir
 
Spd
km/h
Gust
km/h
Spd
kts
Gust
kts
05/05:30am 5.6 4.0 2.3 79 1.4 CALM 0 0 0 0 1021.4 1021.5 0.0
05/05:00am 5.8 3.5 0.4 68 2.1 WSW 2 6 1 3 1021.3 1021.4 0.0
05/04:30am 7.1 3.8 0.3 62 2.7 WSW 7 9 4 5 1021.4 1021.5 0.0
05/04:00am 7.6 4.0 0.6 61 2.8 SW 9 11 5 6 1021.5 1021.6 0.0
05/03:30am 7.6 4.0 0.6 61 2.8 SW 9 11 5 6 1021.9 1022.0 0.0
05/03:00am 7.6 4.4 0.6 61 2.8 SW 7 9 4 5 1022.1 1022.2 0.0
05/02:30am 7.9 4.2 0.2 58 3.1 WSW 9 11 5 6 1022.3 1022.4 0.0
05/02:00am 8.0 4.7 0.3 58 3.1 SW 7 9 4 5 1022.6 1022.7 0.0
05/01:30am 8.1 4.5 0.3 58 3.1 WSW 9 11 5 6 1022.8 1022.9 0.0
05/01:00am 8.3 4.6 0.1 56 3.3 WSW 9 13 5 7 1022.8 1022.9 0.0
05/12:30am 8.4 4.7 0.1 56 3.3 WSW 9 11 5 6 1023.0 1023.1 0.0
05/12:00am 8.7 4.6 -0.1 54 3.5 SW 11 15 6 8 1023.0 1023.1 0.0
 
Date/Time
EST
Temp
°C
App
Temp
°C
Dew
Point
Rel
Hum
%
Delta-T
°C
Wind Press
QNH
hPa
Press
MSL
hPa
Rain
since 9 am
mm
Dir
 
Spd
km/h
Gust
km/h
Spd
kts
Gust
kts
04/11:30pm 8.7 4.6 -0.1 54 3.5 SW 11 15 6 8 1023.0 1023.1 0.0
04/11:00pm 8.9 5.2 0.1 54 3.5 SW 9 15 5 8 1023.1 1023.2 0.0
04/10:30pm 9.0 5.3 0.2 54 3.6 SW 9 13 5 7 1023.2 1023.4 0.0
04/10:00pm 9.2 5.2 0.4 54 3.6 SW 11 17 6 9 1023.4 1023.6 0.0
04/09:30pm 9.5 4.7 0.1 52 3.8 SW 15 20 8 11 1023.4 1023.6 0.0
04/09:00pm 9.6 5.2 0.5 53 3.7 SW 13 20 7 11 1023.6 1023.8 0.0
04/08:30pm 9.7 5.3 0.6 53 3.7 SW 13 20 7 11 1023.5 1023.7 0.0
04/08:00pm 9.8 4.7 0.9 54 3.7 SW 17 24 9 13 1023.4 1023.6 0.0
04/07:30pm 9.9 5.2 1.0 54 3.7 SW 15 20 8 11 1023.4 1023.6 0.0
04/07:00pm 10.1 5.9 1.5 55 3.6 SW 13 17 7 9 1023.3 1023.5 0.0
04/06:30pm 10.2 5.6 1.3 54 3.7 SW 15 20 8 11 1022.9 1023.0 0.0
04/06:00pm 10.2 5.3 1.8 56 3.6 SSW 17 24 9 13 1022.8 1022.9 0.0
04/05:30pm 10.7 5.8 1.8 54 3.8 SW 17 24 9 13 1022.8 1022.9 0.0
04/05:00pm 11.0 6.1 2.1 54 3.8 WSW 17 22 9 12 1022.7 1022.8 0.0
04/04:30pm 11.1 5.8 1.6 52 4.1 SW 19 24 10 13 1022.7 1022.8 0.0
04/04:00pm 11.5 7.0 2.3 53 4.0 WSW 15 19 8 10 1022.7 1022.8 0.0
04/03:30pm 11.1 6.7 2.7 56 3.7 WSW 15 20 8 11 1022.7 1022.8 0.0
04/03:00pm 11.7 6.9 2.7 54 3.9 WSW 17 24 9 13 1022.9 1023.0 0.0
04/02:30pm 11.3 6.8 2.3 54 3.9 SW 15 22 8 12 1022.8 1022.9 0.0
04/02:00pm 11.5 7.4 2.0 52 4.1 SSW 13 24 7 13 1023.0 1023.1 0.0
04/01:30pm 11.3 7.2 2.3 54 3.9 WSW 13 19 7 10 1023.4 1023.6 0.0
04/01:00pm 10.2 6.3 3.3 62 3.0 WSW 13 19 7 10 1024.0 1024.2 0.0
04/12:30pm 10.1 6.0 4.5 68 2.5 SW 15 20 8 11 1024.8 1024.9 0.0
04/12:00pm 10.1 5.1 3.6 64 2.9 SSW 19 24 10 13 1025.1 1025.2 0.0
04/11:30am 10.9 6.9 3.0 58 3.5 SW 13 15 7 8 1025.5 1025.6 0.0
04/11:00am 10.7 7.0 4.6 66 2.8 SW 13 19 7 10 1025.9 1026.0 0.0
04/10:30am 9.7 5.1 3.9 67 2.6 SSW 17 22 9 12 1026.0 1026.1 0.0
04/10:00am 9.0 5.9 5.7 80 1.5 WSW 11 15 6 8 1026.1 1026.2 0.0
04/09:30am 9.0 5.6 6.1 82 1.3 SSW 13 17 7 9 1025.9 1026.0 0.0
04/09:00am 8.4 5.1 6.2 86 1.0 SW 13 17 7 9 1025.9 1026.0 0.0
04/08:30am 7.8 5.4 7.1 95 0.3 SW 9 11 5 6 1025.6 1025.7 0.0
04/08:00am 7.0 6.2 6.7 98 0.1 CALM 0 0 0 0 1025.3 1025.4 0.0
04/07:30am 6.5 5.6 6.1 97 0.2 CALM 0 6 0 3 1025.0 1025.1 0.0
04/07:00am 5.8 4.7 5.2 96 0.3 CALM 0 0 0 0 1024.8 1024.9 0.0
04/06:30am 5.8 4.7 5.2 96 0.3 CALM 0 0 0 0 1024.5 1024.6 0.0
04/06:00am 5.9 4.8 5.2 95 0.3 CALM 0 0 0 0 1024.1 1024.3 0.0
04/05:30am 5.6 4.4 4.6 93 0.4 CALM 0 0 0 0 1023.8 1024.0 0.0
04/05:00am 5.7 4.5 4.5 92 0.5 CALM 0 0 0 0 1023.8 1024.0 0.0
04/04:30am 7.4 6.5 6.0 91 0.6 CALM 0 0 0 0 1023.7 1023.9 0.0
04/04:00am 8.0 6.1 6.5 90 0.7 WSW 6 7 3 4 1023.9 1024.1 0.0
04/03:30am 8.3 6.4 6.6 89 0.8 WSW 6 6 3 3 1024.0 1024.2 0.0
04/03:00am 8.4 6.5 6.7 89 0.8 SW 6 9 3 5 1024.2 1024.4 0.0
04/02:30am 8.5 6.4 6.6 88 0.9 SW 7 11 4 6 1024.5 1024.6 0.0
04/02:00am 8.6 6.4 6.4 86 1.0 SW 7 9 4 5 1024.6 1024.7 0.0
04/01:30am 8.6 6.7 6.6 87 0.9 SSE 6 7 3 4 1024.6 1024.7 0.0
04/01:00am 8.7 6.3 6.8 88 0.9 SSE 9 9 5 5 1024.8 1024.9 0.0
04/12:30am 8.8 6.3 6.6 86 1.0 S 9 17 5 9 1024.8 1024.9 0.0
04/12:00am 9.1 6.3 6.9 86 1.0 S 11 15 6 8 1024.8 1024.9 0.0
 
Date/Time
EST
Temp
°C
App
Temp
°C
Dew
Point
Rel
Hum
%
Delta-T
°C
Wind Press
QNH
hPa
Press
MSL
hPa
Rain
since 9 am
mm
Dir
 
Spd
km/h
Gust
km/h
Spd
kts
Gust
kts
03/11:30pm 9.7 5.5 5.9 77 1.8 S 17 22 9 12 1024.9 1025.0 0.0
03/11:00pm 10.2 5.9 5.2 71 2.3 SSE 17 24 9 13 1024.8 1024.9 0.0
03/10:30pm 11.0 6.9 4.2 63 3.1 S 15 22 8 12 1024.7 1024.8 0.0
03/10:00pm 11.4 6.8 3.9 60 3.4 SSW 17 22 9 12 1024.8 1024.9 0.0
03/09:30pm 11.6 8.5 3.4 57 3.7 SW 9 13 5 7 1024.7 1024.8 0.0
03/09:00pm 11.9 8.1 3.7 57 3.7 SSW 13 20 7 11 1024.5 1024.6 0.0
03/08:30pm 12.0 7.8 3.8 57 3.7 SSW 15 24 8 13 1024.5 1024.6 0.0
03/08:00pm 12.2 7.6 3.9 57 3.7 SSW 17 24 9 13 1024.2 1024.4 0.0
03/07:30pm 12.5 7.4 3.2 53 4.2 SW 19 28 10 15 1023.9 1024.1 0.0
03/07:00pm 12.6 8.4 3.8 55 4.0 SW 15 22 8 12 1023.6 1023.8 0.0
03/06:30pm 12.7 8.5 3.9 55 4.0 SW 15 20 8 11 1023.3 1023.5 0.0
03/06:00pm 12.9 8.4 4.1 55 4.0 SW 17 22 9 12 1023.0 1023.1 0.0
03/05:30pm 13.2 8.2 3.6 52 4.4 SW 19 30 10 16 1022.7 1022.8 0.0
03/05:00pm 13.5 8.2 3.0 49 4.7 SW 20 30 11 16 1022.4 1022.5 0.0
03/04:30pm 13.8 8.7 3.0 48 4.9 SW 19 28 10 15 1022.1 1022.2 0.0
03/04:00pm 14.1 8.4 2.7 46 5.1 SW 22 32 12 17 1022.0 1022.1 0.0
03/03:30pm 14.0 8.3 2.6 46 5.1 SW 22 30 12 16 1022.0 1022.1 0.0
03/03:00pm 14.8 8.8 3.3 46 5.2 SW 24 37 13 20 1021.9 1022.0 0.0
03/02:30pm 15.0 9.5 3.8 47 5.2 SW 22 32 12 17 1021.8 1021.9 0.0
03/02:00pm 14.2 8.3 3.7 49 4.8 SSW 24 35 13 19 1021.9 1022.0 0.0
03/01:30pm 14.7 9.5 3.8 48 5.0 SW 20 28 11 15 1022.2 1022.3 0.0
03/01:00pm 13.7 8.1 3.2 49 4.7 SW 22 32 12 17 1022.5 1022.6 0.0
03/12:30pm 13.8 7.5 3.6 50 4.7 SSW 26 37 14 20 1022.8 1022.9 0.0
03/12:00pm 13.4 6.6 3.2 50 4.6 SW 28 41 15 22 1023.2 1023.4 0.0
03/11:30am 13.2 7.1 3.0 50 4.6 SW 24 35 13 19 1023.5 1023.7 0.0
03/11:00am 12.6 6.5 3.0 52 4.3 SSW 24 37 13 20 1023.8 1024.0 0.0
03/10:30am 11.8 5.3 2.8 54 4.0 SSW 26 35 14 19 1023.9 1024.1 0.0
03/10:26am 12.2 6.3 3.9 57 3.8 SW 24 37 13 20 1023.9 1024.1 0.0
03/10:24am 11.9 6.3 3.4 56 3.8 SW 22 37 12 20 1023.8 1024.0 0.0
03/10:22am 11.8 6.6 3.6 57 3.7 SW 20 37 11 20 1023.9 1024.1 0.0
03/10:12am 10.7 5.6 4.2 64 2.9 SW 20 28 11 15 1024.0 - 0.0
03/10:08am 10.7 5.8 4.2 64 2.9 SW 19 28 10 15 1024.1 1024.3 0.0
03/10:05am 10.7 5.8 4.2 64 2.9 SW 19 24 10 13 1024.0 1024.2 0.0
03/10:00am 10.7 6.3 4.6 66 2.8 SW 17 24 9 13 1024.0 1024.2 0.0
03/09:30am 9.6 4.8 4.4 70 2.3 SW 19 28 10 15 1023.9 1024.1 0.0
03/09:00am 8.1 4.4 4.7 79 1.5 SW 13 20 7 11 1023.8 1024.0 0.0
03/08:30am 5.7 2.0 4.2 90 0.6 SW 13 17 7 9 1023.6 1023.8 0.0
03/08:00am 2.7 1.0 2.1 96 0.2 CALM 0 0 0 0 1023.2 1023.4 0.0
03/07:30am 1.3 -0.6 0.6 95 0.3 CALM 0 0 0 0 1022.7 1022.8 0.0
03/07:00am 0.4 -1.6 -0.4 94 0.3 CALM 0 0 0 0 1022.5 1022.6 0.0
03/06:30am 1.0 -1.0 0.1 94 0.3 CALM 0 0 0 0 1022.3 1022.4 0.0
03/06:00am 0.8 -1.2 -0.1 94 0.3 CALM 0 0 0 0 1022.1 1022.2 0.0
03/05:30am 1.4 -0.5 0.5 94 0.3 CALM 0 0 0 0 1021.8 1021.9 0.0
03/05:00am 2.0 0.2 1.3 95 0.3 CALM 0 0 0 0 1021.7 1021.8 0.0
03/04:30am 2.3 0.6 1.6 95 0.3 CALM 0 0 0 0 1021.5 1021.6 0.0
03/04:00am 1.9 0.1 0.9 93 0.4 CALM 0 0 0 0 1021.6 1021.7 0.0
03/03:30am 2.0 0.2 1.0 93 0.4 CALM 0 0 0 0 1021.6 1021.7 0.0
03/03:00am 2.3 0.5 1.3 93 0.4 CALM 0 0 0 0 1021.7 1021.8 0.0
03/02:30am 2.6 0.8 1.3 91 0.5 CALM 0 0 0 0 1021.7 1021.8 0.0
03/02:00am 2.9 1.1 1.4 90 0.6 CALM 0 0 0 0 1021.6 1021.7 0.0
03/01:30am 2.9 1.1 1.3 89 0.6 CALM 0 0 0 0 1021.8 1021.9 0.0
03/01:00am 4.1 2.5 2.3 88 0.7 CALM 0 0 0 0 1021.9 1022.0 0.0
03/12:30am 4.6 3.0 2.3 85 0.9 CALM 0 0 0 0 1021.9 1022.0 0.0
03/12:00am 5.8 3.0 3.0 82 1.2 S 7 7 4 4 1022.0 1022.1 0.0
 
Date/Time
EST
Temp
°C
App
Temp
°C
Dew
Point
Rel
Hum
%
Delta-T
°C
Wind Press
QNH
hPa
Press
MSL
hPa
Rain
since 9 am
mm
Dir
 
Spd
km/h
Gust
km/h
Spd
kts
Gust
kts
02/11:30pm 6.8 3.3 3.6 80 1.4 S 11 13 6 7 1021.9 1022.0 0.0
02/11:00pm 7.7 4.2 3.7 76 1.7 S 11 15 6 8 1021.9 1022.0 0.0
02/10:30pm 8.4 4.2 3.8 73 2.0 SSW 15 20 8 11 1021.7 1021.8 0.0
02/10:00pm 8.9 4.3 3.9 71 2.2 SSW 17 20 9 11 1021.5 1021.6 0.0
02/09:30pm 9.6 4.7 4.2 69 2.4 SSW 19 24 10 13 1021.3 1021.4 0.0
02/09:00pm 9.5 5.7 4.1 69 2.4 SW 13 17 7 9 1021.1 1021.2 0.0
02/08:30pm 10.1 6.3 3.8 65 2.8 SSW 13 20 7 11 1020.7 1020.8 0.0
02/08:00pm 10.9 5.7 3.7 61 3.2 SSW 20 26 11 14 1020.3 1020.4 0.0
02/07:30pm 11.4 6.4 3.4 58 3.6 SSW 19 24 10 13 1020.1 1020.2 0.0
02/07:00pm 12.1 7.5 3.6 56 3.8 SSW 17 24 9 13 1019.7 1019.8 0.0
02/06:30pm 12.3 7.9 4.5 59 3.6 SSW 17 20 9 11 1019.1 1019.2 0.0
02/06:00pm 13.3 8.4 5.0 57 3.9 SSW 20 26 11 14 1018.5 1018.6 0.0
02/05:30pm 14.1 9.6 6.0 58 3.9 SSW 19 28 10 15 1017.9 1018.0 0.0
02/05:00pm 14.6 9.5 5.9 56 4.2 SW 22 32 12 17 1017.5 1017.6 0.0
02/04:30pm 15.4 10.1 6.9 57 4.2 SSW 24 32 13 17 1017.0 1017.1 0.0
02/04:00pm 15.4 9.4 7.2 58 4.1 SW 28 37 15 20 1017.0 1017.1 0.0
02/03:30pm 15.8 9.9 7.3 57 4.3 SW 28 37 15 20 1016.6 1016.7 0.0
02/03:00pm 17.0 11.8 8.7 58 4.3 SSW 26 35 14 19 1015.9 1016.0 0.0
02/02:30pm 17.3 11.9 7.9 54 4.8 SW 26 37 14 20 1015.4 1015.4 0.0
02/02:00pm 18.7 13.5 8.9 53 5.2 SW 26 33 14 18 1015.0 1015.0 0.0
02/01:30pm 20.3 14.5 6.3 40 7.1 WSW 26 35 14 19 1014.7 1014.7 0.0
02/01:00pm 21.3 16.1 5.6 36 7.9 WSW 22 32 12 17 1014.7 1014.7 0.0
02/12:30pm 21.7 16.1 5.2 34 8.3 W 24 32 13 17 1014.8 1014.8 0.0
02/12:00pm 21.7 16.4 5.2 34 8.3 W 22 28 12 15 1015.0 1015.0 0.0
02/11:30am 21.5 15.7 4.6 33 8.4 W 24 33 13 18 1015.2 1015.2 0.0
02/11:00am 21.4 17.0 4.9 34 8.2 WNW 17 22 9 12 1015.3 1015.3 0.0
02/10:30am 19.8 14.8 3.5 34 7.8 WNW 19 26 10 14 1015.6 1015.7 0.0
02/10:00am 19.6 14.9 3.3 34 7.7 NW 17 24 9 13 1015.6 1015.7 0.0
02/09:30am 18.7 13.1 3.3 36 7.3 NW 22 32 12 17 1015.5 1015.6 0.0
02/09:00am 18.2 12.5 2.9 36 7.1 NNW 22 30 12 16 1015.2 1015.2 0.0
02/08:30am 17.3 12.1 2.5 37 6.8 NNW 19 32 10 17 1015.2 1015.2 0.0
02/08:00am 13.5 9.5 2.7 48 4.8 NNE 13 17 7 9 1015.1 1015.1 0.0
02/07:30am 12.5 7.7 2.4 50 4.4 NNE 17 19 9 10 1014.8 1014.8 0.0
02/07:00am 12.8 8.3 2.4 49 4.6 N 15 19 8 10 1014.7 1014.7 0.0
02/06:30am 11.7 7.6 2.2 52 4.1 NNE 13 17 7 9 1014.5 1014.6 0.0
02/06:00am 12.1 8.0 2.3 51 4.3 NE 13 15 7 8 1014.4 1014.5 0.0

Other Formats:

Comma delimited format used in spreadsheet applications
http://www.bom.gov.au/fwo/IDN60801/IDN60801.94710.axf

JavaScript Object Notation format (JSON) in row-major order
http://www.bom.gov.au/fwo/IDN60801/IDN60801.94710.json